Flight Track Log - Related Links

Times and Time Zones

All times are in EDT time to prevent confusion due to time zone crossing. See the DAL3676 flight status page for this flight to view local times or setup timezone preferences in your user account.

Time Position Orientation Groundspeed Altitude Reporting Facility
EDT Latitude Longitude Course Direction KTS MPH feet Rate Location/Type
Tue 08:30:35 AM 42.2333 -83.3344 206° Southwest 141 162 1,500  Level Cleveland Center
Tue 08:31:43 AM 42.2850 -83.3506 347° North 207 238 3,500 1,956 Climbing Cleveland Center
Tue 08:32:50 AM 42.3556 -83.3678 350° North 273 314 5,900 2,331 Climbing Cleveland Center
Tue 08:33:00 AM 41.9566 -83.5435 217° Southwest  Level FlightAware Approximate
Tue 08:33:44 AM 42.3767 -83.4389 292° West 267 307 8,200  Level Cleveland Center
Tue 08:34:00 AM 41.8777 -83.6146 211° Southwest  Level FlightAware Approximate
Tue 08:34:35 AM 42.3597 -83.5339 256° West 277 319 10,500  Level Cleveland Center
Tue 08:35:00 AM 41.7943 -83.6760 206° Southwest  Level FlightAware Approximate
Tue 08:35:35 AM 42.2939 -83.5842 209° Southwest 349 402 11,500  Level Cleveland Center
Tue 08:36:35 AM 42.1992 -83.6131 193° South 386 444 13,100 2,050 Climbing Cleveland Center
Tue 08:37:35 AM 42.0983 -83.6503 195° South 386 444 15,600 2,250 Climbing Cleveland Center
Tue 08:38:35 AM 41.9994 -83.6847 195° South 379 436 17,600 1,950 Climbing Cleveland Center
Tue 08:39:35 AM 41.9006 -83.7161 193° South 379 436 19,500 1,900 Climbing Cleveland Center
Tue 08:40:35 AM 41.8036 -83.7506 195° South 374 430 21,400 1,250 Climbing Cleveland Center
Tue 08:41:35 AM 41.7025 -83.7844 194° South 374 430 22,000 300 Climbing Cleveland Center
Tue 08:42:35 AM 41.6069 -83.8492 207° Southwest 380 437 22,000  Level Cleveland Center
Tue 08:43:35 AM 41.5067 -83.9300 211° Southwest 403 464 22,000  Level Cleveland Center
Tue 08:44:35 AM 41.4042 -84.0078 210° Southwest 419 482 22,000  Level Cleveland Center
Tue 08:45:35 AM 41.3100 -84.0858 212° Southwest 425 489 22,000  Level Cleveland Center
Tue 08:46:59 AM 41.2217 -84.2442 233° Southwest 410 472 22,000  Level Chicago Center
Tue 08:48:01 AM 41.1844 -84.3883 251° West 411 473 22,000  Level Chicago Center
Tue 08:49:03 AM 41.1425 -84.5294 249° West 411 473 22,000  Level Chicago Center
Tue 08:50:05 AM 41.0494 -84.6261 218° Southwest 428 493 22,000  Level Chicago Center
Tue 08:51:07 AM 40.9353 -84.7353 216° Southwest 421 484 22,000  Level Chicago Center
Tue 08:52:09 AM 40.8392 -84.8258 215° Southwest 423 487 22,000 -290 Level Chicago Center
Tue 08:53:11 AM 40.7442 -84.9164 216° Southwest 422 486 21,400 -768 Descending Chicago Center
Tue 08:54:14 AM 40.6483 -85.0081 216° Southwest 424 488 20,400 -672 Descending Chicago Center
Tue 08:55:16 AM 40.5536 -85.1278 224° Southwest 416 479 20,000 -194 Descending Chicago Center
Tue 08:56:18 AM 40.4703 -85.2378 225° Southwest 423 487 20,000 -774 Level Chicago Center
Tue 08:57:20 AM 40.3869 -85.3453 225° Southwest 422 486 18,400 -1,853 Descending Chicago Center
Tue 08:58:34 AM 40.2889 -85.4714 224° Southwest 411 473 15,800 -2,074 Descending Indianapolis Center
Tue 08:59:36 AM 40.2139 -85.5697 225° Southwest 387 445 13,700 -1,839 Descending Indianapolis Center
Tue 09:00:38 AM 40.1489 -85.6522 224° Southwest 326 375 12,000 -1,561 Descending Indianapolis Center
Tue 09:01:39 AM 40.1053 -85.7353 236° Southwest 284 327 10,500 -1,317 Descending Indianapolis Center
Tue 09:02:41 AM 40.0553 -85.8314 236° Southwest 269 310 9,300 -1,306 Descending Indianapolis Center
Tue 09:03:43 AM 40.0067 -85.9111 231° Southwest 278 320 7,800 -1,113 Descending Indianapolis Center
Tue 09:04:45 AM 39.9542 -85.9792 225° Southwest 268 308 7,000 -976 Descending Indianapolis Center
Tue 09:05:46 AM 39.9050 -86.0428 225° Southwest 253 291 5,800 -1,220 Descending Indianapolis Center
Tue 09:06:48 AM 39.8564 -86.1053 225° Southwest 250 288 4,500 -1,258 Descending Indianapolis Center

Login

Don't have an account? Register now (free) for customized features, flight alerts, and more!